sensor_id;sensor_type;location;lat;lon;timestamp;pressure;altitude;pressure_sealevel;temperature;humidity
59274;BME280;45044;41.572;24.730;2022-08-19T00:01:36;91319.47;;;16.06;100.00
59274;BME280;45044;41.572;24.730;2022-08-19T00:04:06;91307.75;;;16.03;100.00
59274;BME280;45044;41.572;24.730;2022-08-19T00:06:34;91319.13;;;16.04;100.00
59274;BME280;45044;41.572;24.730;2022-08-19T00:09:05;91311.16;;;16.04;100.00
59274;BME280;45044;41.572;24.730;2022-08-19T00:11:32;91316.56;;;15.97;100.00
59274;BME280;45044;41.572;24.730;2022-08-19T00:14:01;91316.63;;;15.93;100.00
59274;BME280;45044;41.572;24.730;2022-08-19T00:16:29;91302.66;;;15.68;100.00
59274;BME280;45044;41.572;24.730;2022-08-19T00:18:56;91309.00;;;15.75;100.00
59274;BME280;45044;41.572;24.730;2022-08-19T00:21:24;91316.13;;;15.78;100.00
59274;BME280;45044;41.572;24.730;2022-08-19T00:23:53;91314.66;;;15.77;100.00
59274;BME280;45044;41.572;24.730;2022-08-19T00:26:20;91310.41;;;15.79;100.00
59274;BME280;45044;41.572;24.730;2022-08-19T00:28:46;91308.66;;;15.73;100.00
59274;BME280;45044;41.572;24.730;2022-08-19T00:31:13;91304.75;;;15.81;100.00
59274;BME280;45044;41.572;24.730;2022-08-19T00:33:40;91296.16;;;15.73;100.00
59274;BME280;45044;41.572;24.730;2022-08-19T00:36:08;91304.16;;;15.69;100.00
59274;BME280;45044;41.572;24.730;2022-08-19T00:38:37;91286.09;;;15.64;100.00
59274;BME280;45044;41.572;24.730;2022-08-19T00:41:05;91294.38;;;15.66;100.00
59274;BME280;45044;41.572;24.730;2022-08-19T00:43:32;91293.56;;;15.69;100.00
59274;BME280;45044;41.572;24.730;2022-08-19T00:45:59;91294.44;;;15.63;100.00
59274;BME280;45044;41.572;24.730;2022-08-19T00:48:28;91292.53;;;15.63;100.00
59274;BME280;45044;41.572;24.730;2022-08-19T00:50:55;91294.50;;;15.59;100.00
59274;BME280;45044;41.572;24.730;2022-08-19T00:53:24;91294.50;;;15.59;100.00
59274;BME280;45044;41.572;24.730;2022-08-19T00:55:55;91285.19;;;15.51;100.00
59274;BME280;45044;41.572;24.730;2022-08-19T00:58:27;91280.34;;;15.45;100.00
59274;BME280;45044;41.572;24.730;2022-08-19T01:00:55;91271.03;;;15.37;100.00
59274;BME280;45044;41.572;24.730;2022-08-19T01:03:23;91282.53;;;15.51;100.00
59274;BME280;45044;41.572;24.730;2022-08-19T01:05:52;91285.88;;;15.31;100.00
59274;BME280;45044;41.572;24.730;2022-08-19T01:08:20;91282.25;;;15.21;100.00
59274;BME280;45044;41.572;24.730;2022-08-19T01:10:51;91279.88;;;15.27;100.00
59274;BME280;45044;41.572;24.730;2022-08-19T01:13:20;91276.16;;;15.24;100.00
59274;BME280;45044;41.572;24.730;2022-08-19T01:16:00;91274.94;;;15.29;100.00
59274;BME280;45044;41.572;24.730;2022-08-19T01:18:29;91254.22;;;15.24;100.00
59274;BME280;45044;41.572;24.730;2022-08-19T01:21:02;91275.28;;;15.31;100.00
59274;BME280;45044;41.572;24.730;2022-08-19T01:23:32;91265.91;;;15.26;100.00
59274;BME280;45044;41.572;24.730;2022-08-19T01:26:15;91268.22;;;15.24;100.00
59274;BME280;45044;41.572;24.730;2022-08-19T01:28:44;91270.03;;;15.27;100.00
59274;BME280;45044;41.572;24.730;2022-08-19T01:31:18;91262.50;;;15.26;100.00
59274;BME280;45044;41.572;24.730;2022-08-19T01:33:54;91264.22;;;15.12;100.00
59274;BME280;45044;41.572;24.730;2022-08-19T01:36:28;91264.88;;;15.20;100.00
59274;BME280;45044;41.572;24.730;2022-08-19T01:38:57;91264.91;;;15.16;100.00
59274;BME280;45044;41.572;24.730;2022-08-19T01:41:24;91260.19;;;15.04;100.00
59274;BME280;45044;41.572;24.730;2022-08-19T01:43:52;91265.38;;;15.11;100.00
59274;BME280;45044;41.572;24.730;2022-08-19T01:46:41;91272.16;;;15.12;100.00
59274;BME280;45044;41.572;24.730;2022-08-19T01:49:08;91275.63;;;15.09;100.00
59274;BME280;45044;41.572;24.730;2022-08-19T01:51:37;91272.56;;;15.11;100.00
59274;BME280;45044;41.572;24.730;2022-08-19T01:54:07;91277.50;;;15.08;100.00
59274;BME280;45044;41.572;24.730;2022-08-19T01:56:34;91279.31;;;15.15;100.00
59274;BME280;45044;41.572;24.730;2022-08-19T01:59:04;91274.75;;;15.16;100.00
59274;BME280;45044;41.572;24.730;2022-08-19T02:01:32;91273.38;;;15.07;100.00
59274;BME280;45044;41.572;24.730;2022-08-19T02:04:02;91277.56;;;15.05;100.00
59274;BME280;45044;41.572;24.730;2022-08-19T02:06:29;91277.56;;;15.05;100.00
59274;BME280;45044;41.572;24.730;2022-08-19T02:08:56;91271.19;;;15.02;100.00
59274;BME280;45044;41.572;24.730;2022-08-19T02:11:26;91275.03;;;14.97;100.00
59274;BME280;45044;41.572;24.730;2022-08-19T02:13:54;91275.31;;;15.03;100.00
59274;BME280;45044;41.572;24.730;2022-08-19T02:16:21;91278.78;;;15.00;100.00
59274;BME280;45044;41.572;24.730;2022-08-19T02:18:53;91280.69;;;15.00;100.00
59274;BME280;45044;41.572;24.730;2022-08-19T02:21:22;91282.75;;;14.88;100.00
59274;BME280;45044;41.572;24.730;2022-08-19T02:23:50;91290.28;;;14.90;100.00
59274;BME280;45044;41.572;24.730;2022-08-19T02:26:17;91285.81;;;14.87;100.00
59274;BME280;45044;41.572;24.730;2022-08-19T02:28:45;91288.81;;;14.85;100.00
59274;BME280;45044;41.572;24.730;2022-08-19T02:31:15;91290.00;;;14.84;100.00
59274;BME280;45044;41.572;24.730;2022-08-19T02:33:44;91296.44;;;14.83;100.00
59274;BME280;45044;41.572;24.730;2022-08-19T02:36:13;91297.59;;;14.78;100.00
59274;BME280;45044;41.572;24.730;2022-08-19T02:38:42;91292.09;;;14.65;100.00
59274;BME280;45044;41.572;24.730;2022-08-19T02:41:24;91283.03;;;14.66;100.00
59274;BME280;45044;41.572;24.730;2022-08-19T02:43:56;91296.59;;;14.68;100.00
59274;BME280;45044;41.572;24.730;2022-08-19T02:46:48;91295.03;;;14.71;100.00
59274;BME280;45044;41.572;24.730;2022-08-19T02:49:18;91295.81;;;14.71;100.00
59274;BME280;45044;41.572;24.730;2022-08-19T02:51:46;91285.22;;;14.71;100.00
59274;BME280;45044;41.572;24.730;2022-08-19T02:54:14;91296.84;;;14.78;100.00
59274;BME280;45044;41.572;24.730;2022-08-19T02:56:42;91300.66;;;14.77;100.00
59274;BME280;45044;41.572;24.730;2022-08-19T02:59:12;91298.81;;;14.73;100.00
59274;BME280;45044;41.572;24.730;2022-08-19T03:01:40;91298.84;;;14.70;100.00
59274;BME280;45044;41.572;24.730;2022-08-19T03:04:09;91299.31;;;14.65;100.00
59274;BME280;45044;41.572;24.730;2022-08-19T03:06:39;91304.25;;;14.63;100.00
59274;BME280;45044;41.572;24.730;2022-08-19T03:09:06;91299.69;;;14.63;100.00
59274;BME280;45044;41.572;24.730;2022-08-19T03:11:34;91294.00;;;14.65;100.00
59274;BME280;45044;41.572;24.730;2022-08-19T03:14:08;91312.47;;;14.68;100.00
59274;BME280;45044;41.572;24.730;2022-08-19T03:16:44;91302.69;;;14.65;100.00
59274;BME280;45044;41.572;24.730;2022-08-19T03:19:12;91298.91;;;14.66;100.00
59274;BME280;45044;41.572;24.730;2022-08-19T03:21:39;91304.59;;;14.65;100.00
59274;BME280;45044;41.572;24.730;2022-08-19T03:24:08;91305.16;;;14.48;100.00
59274;BME280;45044;41.572;24.730;2022-08-19T03:26:43;91314.88;;;14.59;100.00
59274;BME280;45044;41.572;24.730;2022-08-19T03:29:30;91306.88;;;14.63;100.00
59274;BME280;45044;41.572;24.730;2022-08-19T03:32:04;91314.41;;;14.64;100.00
59274;BME280;45044;41.572;24.730;2022-08-19T03:34:34;91319.34;;;14.62;100.00
59274;BME280;45044;41.572;24.730;2022-08-19T03:37:08;91311.47;;;14.58;100.00
59274;BME280;45044;41.572;24.730;2022-08-19T03:39:38;91306.63;;;14.53;100.00
59274;BME280;45044;41.572;24.730;2022-08-19T03:42:05;91315.22;;;14.61;100.00
59274;BME280;45044;41.572;24.730;2022-08-19T03:44:52;91305.47;;;14.54;100.00
59274;BME280;45044;41.572;24.730;2022-08-19T03:47:20;91309.53;;;14.63;100.00
59274;BME280;45044;41.572;24.730;2022-08-19T03:49:47;91320.16;;;14.59;100.00
59274;BME280;45044;41.572;24.730;2022-08-19T03:52:14;91320.06;;;14.66;100.00
59274;BME280;45044;41.572;24.730;2022-08-19T03:54:41;91327.28;;;14.62;100.00
59274;BME280;45044;41.572;24.730;2022-08-19T03:57:08;91332.22;;;14.60;100.00
59274;BME280;45044;41.572;24.730;2022-08-19T03:59:37;91331.88;;;14.58;100.00
59274;BME280;45044;41.572;24.730;2022-08-19T04:02:08;91329.22;;;14.58;100.00
59274;BME280;45044;41.572;24.730;2022-08-19T04:04:37;91328.03;;;14.63;100.00
59274;BME280;45044;41.572;24.730;2022-08-19T04:07:05;91326.13;;;14.63;100.00
59274;BME280;45044;41.572;24.730;2022-08-19T04:09:33;91333.66;;;14.68;100.00
59274;BME280;45044;41.572;24.730;2022-08-19T04:12:00;91326.75;;;14.75;100.00
59274;BME280;45044;41.572;24.730;2022-08-19T04:14:28;91331.22;;;14.78;100.00
59274;BME280;45044;41.572;24.730;2022-08-19T04:16:59;91328.69;;;14.70;100.00
59274;BME280;45044;41.572;24.730;2022-08-19T04:19:28;91328.94;;;14.80;100.00
59274;BME280;45044;41.572;24.730;2022-08-19T04:22:02;91327.81;;;14.81;100.00
59274;BME280;45044;41.572;24.730;2022-08-19T04:24:29;91335.31;;;14.86;100.00
59274;BME280;45044;41.572;24.730;2022-08-19T04:26:56;91341.19;;;14.97;100.00
59274;BME280;45044;41.572;24.730;2022-08-19T04:29:24;91332.44;;;15.04;100.00
59274;BME280;45044;41.572;24.730;2022-08-19T04:31:54;91344.09;;;15.07;100.00
59274;BME280;45044;41.572;24.730;2022-08-19T04:34:24;91335.38;;;15.10;100.00
59274;BME280;45044;41.572;24.730;2022-08-19T04:36:52;91335.69;;;15.12;100.00
59274;BME280;45044;41.572;24.730;2022-08-19T04:39:22;91335.94;;;15.21;100.00
59274;BME280;45044;41.572;24.730;2022-08-19T04:41:49;91320.06;;;15.21;100.00
59274;BME280;45044;41.572;24.730;2022-08-19T04:44:35;91327.53;;;15.27;100.00
59274;BME280;45044;41.572;24.730;2022-08-19T04:47:12;91326.66;;;15.37;100.00
59274;BME280;45044;41.572;24.730;2022-08-19T04:49:38;91328.44;;;15.44;100.00
59274;BME280;45044;41.572;24.730;2022-08-19T04:52:05;91317.94;;;15.37;100.00
59274;BME280;45044;41.572;24.730;2022-08-19T04:54:33;91315.34;;;15.33;100.00
59274;BME280;45044;41.572;24.730;2022-08-19T04:57:06;91326.41;;;15.52;100.00
59274;BME280;45044;41.572;24.730;2022-08-19T04:59:37;91323.38;;;15.53;100.00
59274;BME280;45044;41.572;24.730;2022-08-19T05:02:06;91328.59;;;15.57;100.00
59274;BME280;45044;41.572;24.730;2022-08-19T05:04:33;91324.69;;;16.10;100.00
59274;BME280;45044;41.572;24.730;2022-08-19T05:07:00;91317.81;;;18.20;100.00
59274;BME280;45044;41.572;24.730;2022-08-19T05:09:29;91316.75;;;20.22;100.00
59274;BME280;45044;41.572;24.730;2022-08-19T05:12:17;91314.72;;;22.10;99.48
59274;BME280;45044;41.572;24.730;2022-08-19T05:14:46;91321.88;;;23.04;85.58
59274;BME280;45044;41.572;24.730;2022-08-19T05:17:14;91308.53;;;24.26;73.53
59274;BME280;45044;41.572;24.730;2022-08-19T05:20:02;91312.53;;;24.92;69.53
59274;BME280;45044;41.572;24.730;2022-08-19T05:23:11;91308.81;;;26.18;62.34
59274;BME280;45044;41.572;24.730;2022-08-19T05:25:48;91311.09;;;26.46;59.91
59274;BME280;45044;41.572;24.730;2022-08-19T05:28:14;91314.13;;;26.33;59.18
59274;BME280;45044;41.572;24.730;2022-08-19T05:30:41;91313.88;;;27.55;53.29
59274;BME280;45044;41.572;24.730;2022-08-19T05:33:13;91310.44;;;27.98;52.00
59274;BME280;45044;41.572;24.730;2022-08-19T05:35:40;91302.28;;;28.99;47.79
59274;BME280;45044;41.572;24.730;2022-08-19T05:38:08;91303.00;;;29.40;47.49
59274;BME280;45044;41.572;24.730;2022-08-19T05:40:35;91300.59;;;30.13;45.51
59274;BME280;45044;41.572;24.730;2022-08-19T05:43:06;91304.63;;;29.89;46.22
59274;BME280;45044;41.572;24.730;2022-08-19T05:45:41;91301.50;;;29.73;45.84
59274;BME280;45044;41.572;24.730;2022-08-19T05:48:10;91304.06;;;30.08;45.30
59274;BME280;45044;41.572;24.730;2022-08-19T05:50:41;91293.84;;;31.10;42.43
59274;BME280;45044;41.572;24.730;2022-08-19T05:53:08;91296.53;;;30.79;44.05
59274;BME280;45044;41.572;24.730;2022-08-19T05:55:36;91284.34;;;30.13;44.68
59274;BME280;45044;41.572;24.730;2022-08-19T05:58:06;91296.47;;;30.48;44.04
59274;BME280;45044;41.572;24.730;2022-08-19T06:00:37;91294.13;;;30.33;43.23
59274;BME280;45044;41.572;24.730;2022-08-19T06:03:04;91293.34;;;31.42;41.61
59274;BME280;45044;41.572;24.730;2022-08-19T06:05:38;91296.66;;;32.24;40.19
59274;BME280;45044;41.572;24.730;2022-08-19T06:08:15;91285.19;;;33.49;36.31
59274;BME280;45044;41.572;24.730;2022-08-19T06:10:44;91301.03;;;33.64;37.63
59274;BME280;45044;41.572;24.730;2022-08-19T06:13:11;91290.59;;;34.44;36.01
59274;BME280;45044;41.572;24.730;2022-08-19T06:15:38;91285.31;;;34.81;35.50
59274;BME280;45044;41.572;24.730;2022-08-19T06:18:04;91292.53;;;33.68;36.79
59274;BME280;45044;41.572;24.730;2022-08-19T06:20:32;91292.72;;;33.97;36.22
59274;BME280;45044;41.572;24.730;2022-08-19T06:23:19;91287.78;;;35.35;34.25
59274;BME280;45044;41.572;24.730;2022-08-19T06:25:49;91290.03;;;35.74;33.04
59274;BME280;45044;41.572;24.730;2022-08-19T06:28:16;91283.41;;;35.62;34.01
59274;BME280;45044;41.572;24.730;2022-08-19T06:30:44;91280.31;;;36.84;32.33
59274;BME280;45044;41.572;24.730;2022-08-19T06:33:11;91284.00;;;37.42;31.34
59274;BME280;45044;41.572;24.730;2022-08-19T06:35:40;91265.53;;;37.34;30.80
59274;BME280;45044;41.572;24.730;2022-08-19T06:38:07;91282.31;;;37.85;31.21
59274;BME280;45044;41.572;24.730;2022-08-19T06:40:35;91275.72;;;38.38;29.55
59274;BME280;45044;41.572;24.730;2022-08-19T06:43:04;91279.91;;;37.90;29.91
59274;BME280;45044;41.572;24.730;2022-08-19T06:45:37;91275.50;;;38.02;30.44
59274;BME280;45044;41.572;24.730;2022-08-19T06:48:05;91274.09;;;38.68;29.56
59274;BME280;45044;41.572;24.730;2022-08-19T06:50:33;91275.66;;;35.44;33.61
59274;BME280;45044;41.572;24.730;2022-08-19T06:53:02;91274.81;;;37.78;30.75
59274;BME280;45044;41.572;24.730;2022-08-19T06:55:30;91279.47;;;38.17;28.99
59274;BME280;45044;41.572;24.730;2022-08-19T06:58:02;91257.69;;;39.19;27.98
59274;BME280;45044;41.572;24.730;2022-08-19T07:00:30;91266.03;;;39.72;28.46
59274;BME280;45044;41.572;24.730;2022-08-19T07:03:02;91263.03;;;40.31;27.81
59274;BME280;45044;41.572;24.730;2022-08-19T07:05:41;91258.78;;;39.16;28.48
59274;BME280;45044;41.572;24.730;2022-08-19T07:08:13;91254.59;;;39.15;29.03
59274;BME280;45044;41.572;24.730;2022-08-19T07:10:45;91253.97;;;38.73;28.91
59274;BME280;45044;41.572;24.730;2022-08-19T07:13:13;91253.03;;;38.78;28.51
59274;BME280;45044;41.572;24.730;2022-08-19T07:15:40;91244.94;;;39.32;28.32
59274;BME280;45044;41.572;24.730;2022-08-19T07:18:08;91245.94;;;39.44;27.08
59274;BME280;45044;41.572;24.730;2022-08-19T07:20:37;91244.84;;;40.18;27.56
59274;BME280;45044;41.572;24.730;2022-08-19T07:23:07;91243.13;;;40.51;25.59
59274;BME280;45044;41.572;24.730;2022-08-19T07:25:41;91227.88;;;39.76;26.85
59274;BME280;45044;41.572;24.730;2022-08-19T07:28:09;91248.19;;;40.72;25.56
59274;BME280;45044;41.572;24.730;2022-08-19T07:30:49;91243.88;;;40.79;25.87
59274;BME280;45044;41.572;24.730;2022-08-19T07:33:18;91240.13;;;39.14;27.51
59274;BME280;45044;41.572;24.730;2022-08-19T07:35:45;91242.28;;;38.65;26.55
59274;BME280;45044;41.572;24.730;2022-08-19T07:38:13;91242.09;;;38.96;27.74
59274;BME280;45044;41.572;24.730;2022-08-19T07:40:43;91243.84;;;39.09;27.31
59274;BME280;45044;41.572;24.730;2022-08-19T07:43:12;91241.75;;;34.89;30.77
59274;BME280;45044;41.572;24.730;2022-08-19T07:45:43;91246.75;;;37.38;27.86
59274;BME280;45044;41.572;24.730;2022-08-19T07:48:09;91240.91;;;38.48;27.60
59274;BME280;45044;41.572;24.730;2022-08-19T07:50:36;91250.19;;;37.47;27.55
59274;BME280;45044;41.572;24.730;2022-08-19T07:53:03;91247.97;;;37.77;26.51
59274;BME280;45044;41.572;24.730;2022-08-19T07:55:30;91248.78;;;38.03;25.82
59274;BME280;45044;41.572;24.730;2022-08-19T07:58:10;91244.09;;;37.88;25.58
59274;BME280;45044;41.572;24.730;2022-08-19T08:00:37;91241.50;;;37.97;25.25
59274;BME280;45044;41.572;24.730;2022-08-19T08:03:05;91242.84;;;38.30;24.18
59274;BME280;45044;41.572;24.730;2022-08-19T08:05:32;91236.78;;;36.57;27.22
59274;BME280;45044;41.572;24.730;2022-08-19T08:08:17;91236.06;;;34.87;28.30
59274;BME280;45044;41.572;24.730;2022-08-19T08:11:09;91244.66;;;36.08;26.31
59274;BME280;45044;41.572;24.730;2022-08-19T08:13:40;91246.34;;;36.87;26.45
59274;BME280;45044;41.572;24.730;2022-08-19T08:16:10;91242.63;;;38.36;25.11
59274;BME280;45044;41.572;24.730;2022-08-19T08:18:40;91249.13;;;38.15;25.73
59274;BME280;45044;41.572;24.730;2022-08-19T08:21:16;91249.59;;;37.80;24.74
59274;BME280;45044;41.572;24.730;2022-08-19T08:23:44;91240.53;;;37.30;25.46
59274;BME280;45044;41.572;24.730;2022-08-19T08:26:10;91237.56;;;37.59;24.68
59274;BME280;45044;41.572;24.730;2022-08-19T08:28:41;91238.06;;;35.29;26.89
59274;BME280;45044;41.572;24.730;2022-08-19T08:31:15;91241.34;;;34.85;28.61
59274;BME280;45044;41.572;24.730;2022-08-19T08:33:46;91238.78;;;35.96;28.40
59274;BME280;45044;41.572;24.730;2022-08-19T08:36:13;91244.19;;;35.80;26.56
59274;BME280;45044;41.572;24.730;2022-08-19T08:38:44;91239.41;;;36.86;27.33
59274;BME280;45044;41.572;24.730;2022-08-19T08:43:55;91246.72;;;36.99;26.50
59274;BME280;45044;41.572;24.730;2022-08-19T08:49:36;91239.50;;;38.39;26.63
59274;BME280;45044;41.572;24.730;2022-08-19T08:52:26;91235.59;;;37.36;26.47
59274;BME280;45044;41.572;24.730;2022-08-19T08:55:00;91238.28;;;36.58;27.34
59274;BME280;45044;41.572;24.730;2022-08-19T08:58:25;91243.06;;;36.81;27.00
59274;BME280;45044;41.572;24.730;2022-08-19T09:00:50;91233.88;;;36.47;26.64
59274;BME280;45044;41.572;24.730;2022-08-19T09:03:26;91218.09;;;34.92;27.28
59274;BME280;45044;41.572;24.730;2022-08-19T09:15:08;91222.75;;;33.51;31.39
59274;BME280;45044;41.572;24.730;2022-08-19T09:17:34;91227.78;;;33.74;29.54
59274;BME280;45044;41.572;24.730;2022-08-19T09:20:22;91219.78;;;34.03;30.88
59274;BME280;45044;41.572;24.730;2022-08-19T09:22:51;91223.66;;;33.94;31.41
59274;BME280;45044;41.572;24.730;2022-08-19T09:25:22;91215.06;;;34.39;29.57
59274;BME280;45044;41.572;24.730;2022-08-19T09:27:55;91211.56;;;34.17;30.25
59274;BME280;45044;41.572;24.730;2022-08-19T09:30:36;91211.00;;;34.32;31.25
59274;BME280;45044;41.572;24.730;2022-08-19T09:33:06;91205.94;;;34.01;26.99
59274;BME280;45044;41.572;24.730;2022-08-19T09:35:33;91203.38;;;34.17;31.81
59274;BME280;45044;41.572;24.730;2022-08-19T09:38:18;91194.78;;;32.77;30.88
59274;BME280;45044;41.572;24.730;2022-08-19T09:40:46;91203.63;;;32.83;34.22
59274;BME280;45044;41.572;24.730;2022-08-19T09:43:13;91201.75;;;33.05;32.07
59274;BME280;45044;41.572;24.730;2022-08-19T09:45:39;91189.66;;;33.47;31.57
59274;BME280;45044;41.572;24.730;2022-08-19T09:48:07;91169.34;;;33.21;31.68
59274;BME280;45044;41.572;24.730;2022-08-19T09:50:37;91198.03;;;33.22;34.48
59274;BME280;45044;41.572;24.730;2022-08-19T09:53:18;91189.19;;;32.89;34.74
59274;BME280;45044;41.572;24.730;2022-08-19T09:55:45;91187.13;;;31.90;35.63
59274;BME280;45044;41.572;24.730;2022-08-19T09:58:11;91162.13;;;31.53;37.66
59274;BME280;45044;41.572;24.730;2022-08-19T10:00:38;91190.72;;;31.99;38.79
59274;BME280;45044;41.572;24.730;2022-08-19T10:03:05;91179.91;;;31.74;35.60
59274;BME280;45044;41.572;24.730;2022-08-19T10:05:32;91180.44;;;31.53;36.11
59274;BME280;45044;41.572;24.730;2022-08-19T10:08:25;91178.38;;;31.34;35.85
59274;BME280;45044;41.572;24.730;2022-08-19T10:10:53;91175.66;;;31.59;35.26
59274;BME280;45044;41.572;24.730;2022-08-19T10:13:26;91183.38;;;31.30;37.04
59274;BME280;45044;41.572;24.730;2022-08-19T10:15:56;91183.59;;;31.07;39.29
59274;BME280;45044;41.572;24.730;2022-08-19T10:18:24;91188.50;;;31.34;35.88
59274;BME280;45044;41.572;24.730;2022-08-19T10:20:52;91180.50;;;31.22;37.61
59274;BME280;45044;41.572;24.730;2022-08-19T10:23:28;91176.25;;;31.02;38.47
59274;BME280;45044;41.572;24.730;2022-08-19T10:26:03;91178.16;;;31.57;38.91
59274;BME280;45044;41.572;24.730;2022-08-19T10:28:36;91184.34;;;31.77;36.36
59274;BME280;45044;41.572;24.730;2022-08-19T10:31:11;91179.03;;;31.65;37.65
59274;BME280;45044;41.572;24.730;2022-08-19T10:33:45;91174.50;;;31.93;37.69
59274;BME280;45044;41.572;24.730;2022-08-19T10:36:21;91167.97;;;32.02;37.10
59274;BME280;45044;41.572;24.730;2022-08-19T10:38:50;91171.94;;;32.01;37.36
59274;BME280;45044;41.572;24.730;2022-08-19T10:41:24;91173.31;;;31.88;37.54
59274;BME280;45044;41.572;24.730;2022-08-19T10:43:58;91172.09;;;31.89;38.12
59274;BME280;45044;41.572;24.730;2022-08-19T10:46:30;91163.34;;;32.16;40.50
59274;BME280;45044;41.572;24.730;2022-08-19T10:49:03;91162.06;;;32.50;36.85
59274;BME280;45044;41.572;24.730;2022-08-19T10:51:32;91170.38;;;32.25;35.71
59274;BME280;45044;41.572;24.730;2022-08-19T10:54:18;91169.50;;;32.17;35.48
59274;BME280;45044;41.572;24.730;2022-08-19T10:56:58;91174.06;;;32.08;38.56
59274;BME280;45044;41.572;24.730;2022-08-19T10:59:29;91175.41;;;32.34;41.69
59274;BME280;45044;41.572;24.730;2022-08-19T11:02:03;91168.38;;;32.25;38.14
59274;BME280;45044;41.572;24.730;2022-08-19T11:04:32;91168.22;;;32.37;39.10
59274;BME280;45044;41.572;24.730;2022-08-19T11:07:01;91168.72;;;32.35;40.73
59274;BME280;45044;41.572;24.730;2022-08-19T11:09:28;91163.25;;;32.55;37.48
59274;BME280;45044;41.572;24.730;2022-08-19T11:12:00;91168.31;;;32.31;40.13
59274;BME280;45044;41.572;24.730;2022-08-19T11:14:30;91168.09;;;32.10;39.54
59274;BME280;45044;41.572;24.730;2022-08-19T11:17:00;91167.25;;;32.34;38.70
59274;BME280;45044;41.572;24.730;2022-08-19T11:19:27;91164.38;;;31.74;38.33
59274;BME280;45044;41.572;24.730;2022-08-19T11:21:54;91156.72;;;30.84;41.28
59274;BME280;45044;41.572;24.730;2022-08-19T11:24:25;91167.50;;;31.59;38.77
59274;BME280;45044;41.572;24.730;2022-08-19T11:26:58;91156.94;;;31.94;39.33
59274;BME280;45044;41.572;24.730;2022-08-19T11:29:30;91164.31;;;31.99;39.57
59274;BME280;45044;41.572;24.730;2022-08-19T11:31:57;91154.81;;;31.67;40.77
59274;BME280;45044;41.572;24.730;2022-08-19T11:34:25;91151.16;;;31.46;42.25
59274;BME280;45044;41.572;24.730;2022-08-19T11:36:56;91162.75;;;31.65;42.46
59274;BME280;45044;41.572;24.730;2022-08-19T11:39:29;91160.56;;;32.02;39.26
59274;BME280;45044;41.572;24.730;2022-08-19T11:42:00;91162.88;;;31.92;38.71
59274;BME280;45044;41.572;24.730;2022-08-19T11:44:28;91162.31;;;31.61;39.92
59274;BME280;45044;41.572;24.730;2022-08-19T11:46:56;91157.00;;;31.88;38.73
59274;BME280;45044;41.572;24.730;2022-08-19T11:49:34;91150.94;;;32.01;40.11
59274;BME280;45044;41.572;24.730;2022-08-19T11:52:02;91143.19;;;31.86;38.24
59274;BME280;45044;41.572;24.730;2022-08-19T11:54:29;91153.94;;;31.98;39.59
59274;BME280;45044;41.572;24.730;2022-08-19T11:56:59;91158.50;;;31.89;42.33
59274;BME280;45044;41.572;24.730;2022-08-19T11:59:28;91145.38;;;31.55;40.54
59274;BME280;45044;41.572;24.730;2022-08-19T12:01:57;91145.88;;;31.73;42.80
59274;BME280;45044;41.572;24.730;2022-08-19T12:04:24;91151.00;;;31.76;42.73
59274;BME280;45044;41.572;24.730;2022-08-19T12:06:51;91143.75;;;32.04;39.07
59274;BME280;45044;41.572;24.730;2022-08-19T12:09:41;91148.16;;;32.07;43.11
59274;BME280;45044;41.572;24.730;2022-08-19T12:12:11;91143.97;;;31.67;43.57
59274;BME280;45044;41.572;24.730;2022-08-19T12:14:38;91143.06;;;31.98;40.56
59274;BME280;45044;41.572;24.730;2022-08-19T12:17:05;91152.47;;;32.16;45.23
59274;BME280;45044;41.572;24.730;2022-08-19T12:19:36;91138.88;;;32.16;41.60
59274;BME280;45044;41.572;24.730;2022-08-19T12:22:03;91140.28;;;32.03;45.25
59274;BME280;45044;41.572;24.730;2022-08-19T12:24:32;91141.16;;;32.12;42.54
59274;BME280;45044;41.572;24.730;2022-08-19T12:26:59;91144.84;;;31.76;40.32
59274;BME280;45044;41.572;24.730;2022-08-19T12:29:28;91137.78;;;32.06;39.39
59274;BME280;45044;41.572;24.730;2022-08-19T12:31:57;91132.19;;;31.98;41.89
59274;BME280;45044;41.572;24.730;2022-08-19T12:34:30;91136.91;;;31.78;39.70
59274;BME280;45044;41.572;24.730;2022-08-19T12:37:01;91130.88;;;31.85;42.14
59274;BME280;45044;41.572;24.730;2022-08-19T12:39:34;91128.38;;;32.07;41.18
59274;BME280;45044;41.572;24.730;2022-08-19T12:42:02;91124.41;;;31.88;38.62
59274;BME280;45044;41.572;24.730;2022-08-19T12:44:29;91131.03;;;31.93;42.62
59274;BME280;45044;41.572;24.730;2022-08-19T12:47:02;91129.25;;;31.96;38.41
59274;BME280;45044;41.572;24.730;2022-08-19T12:49:33;91136.69;;;31.57;41.87
59274;BME280;45044;41.572;24.730;2022-08-19T12:52:20;91135.31;;;31.50;41.97
59274;BME280;45044;41.572;24.730;2022-08-19T12:54:51;91126.56;;;31.57;39.32
59274;BME280;45044;41.572;24.730;2022-08-19T12:57:24;91146.22;;;31.44;40.82
59274;BME280;45044;41.572;24.730;2022-08-19T13:00:08;91137.72;;;31.53;41.31
59274;BME280;45044;41.572;24.730;2022-08-19T13:02:38;91142.34;;;31.78;39.25
59274;BME280;45044;41.572;24.730;2022-08-19T13:05:06;91136.19;;;31.58;37.58
59274;BME280;45044;41.572;24.730;2022-08-19T13:07:35;91141.41;;;31.31;37.89
59274;BME280;45044;41.572;24.730;2022-08-19T13:10:10;91141.03;;;31.46;38.80
59274;BME280;45044;41.572;24.730;2022-08-19T13:12:38;91136.69;;;31.12;40.49
59274;BME280;45044;41.572;24.730;2022-08-19T13:15:05;91130.03;;;30.88;38.25
59274;BME280;45044;41.572;24.730;2022-08-19T13:17:37;91141.91;;;30.85;38.87
59274;BME280;45044;41.572;24.730;2022-08-19T13:20:05;91138.03;;;30.75;38.41